createdAt,value
2018-11-05T00:00:50.262Z,89.80
2018-11-05T00:04:23.510Z,89.80
2018-11-05T00:07:56.777Z,90.00
2018-11-05T00:11:30.010Z,90.00
2018-11-05T00:15:03.261Z,90.10
2018-11-05T00:18:36.517Z,90.10
2018-11-05T00:22:09.745Z,90.20
2018-11-05T00:25:43.024Z,90.20
2018-11-05T00:29:16.291Z,90.20
2018-11-05T00:32:49.529Z,90.30
2018-11-05T00:36:22.867Z,90.30
2018-11-05T00:39:56.117Z,90.30
2018-11-05T00:43:29.362Z,90.30
2018-11-05T00:47:02.781Z,90.40
2018-11-05T00:50:36.008Z,90.30
2018-11-05T00:54:09.295Z,90.40
2018-11-05T00:57:42.547Z,90.40
2018-11-05T01:01:15.778Z,90.40
2018-11-05T01:04:49.023Z,90.30
2018-11-05T01:08:22.262Z,90.40
2018-11-05T01:11:55.500Z,90.50
2018-11-05T01:15:34.785Z,90.40
2018-11-05T01:19:08.027Z,90.40
2018-11-05T01:22:41.266Z,90.50
2018-11-05T01:26:14.501Z,90.50
2018-11-05T01:29:47.757Z,90.60
2018-11-05T01:33:21.014Z,90.60
2018-11-05T01:36:54.265Z,90.60
2018-11-05T01:40:27.522Z,90.60
2018-11-05T01:44:00.769Z,90.60
2018-11-05T01:47:34.005Z,90.60
2018-11-05T01:51:07.273Z,90.60
2018-11-05T01:54:40.504Z,90.70
2018-11-05T01:58:13.748Z,90.70
2018-11-05T02:01:46.993Z,90.80
2018-11-05T02:05:20.232Z,90.80
2018-11-05T02:08:53.474Z,90.80
2018-11-05T02:12:26.721Z,90.80
2018-11-05T02:15:59.981Z,90.80
2018-11-05T02:19:33.303Z,90.80
2018-11-05T02:23:06.536Z,90.70
2018-11-05T02:26:39.796Z,90.70
2018-11-05T02:30:15.406Z,90.70
2018-11-05T02:33:48.652Z,90.70
2018-11-05T02:37:22.317Z,90.60
2018-11-05T02:40:55.566Z,90.60
2018-11-05T02:44:28.797Z,90.60
2018-11-05T02:48:02.037Z,90.50
2018-11-05T02:51:35.283Z,90.60
2018-11-05T02:55:09.019Z,90.60
2018-11-05T02:58:42.260Z,90.70
2018-11-05T03:02:15.512Z,90.80
2018-11-05T03:05:48.757Z,90.80
2018-11-05T03:09:22.005Z,90.90
2018-11-05T03:12:55.245Z,90.90
2018-11-05T03:16:28.499Z,90.90
2018-11-05T03:20:01.746Z,90.90
2018-11-05T03:23:34.981Z,91.00
2018-11-05T03:27:08.223Z,91.20
2018-11-05T03:30:41.493Z,91.30
2018-11-05T03:34:14.730Z,91.50
2018-11-05T03:37:47.962Z,91.70
2018-11-05T03:41:21.280Z,91.90
2018-11-05T03:44:54.529Z,92.10
2018-11-05T03:48:27.750Z,92.30
2018-11-05T03:52:00.987Z,92.40
2018-11-05T03:55:34.282Z,92.50
2018-11-05T03:59:07.485Z,92.50
2018-11-05T04:02:40.709Z,92.60
2018-11-05T04:06:13.991Z,92.70
2018-11-05T04:09:47.238Z,92.80
2018-11-05T04:13:20.486Z,92.90
2018-11-05T04:16:53.734Z,92.90
2018-11-05T04:20:26.969Z,93.10
2018-11-05T04:24:00.219Z,93.20
2018-11-05T04:27:33.501Z,93.30
2018-11-05T04:31:06.736Z,93.40
2018-11-05T04:34:39.988Z,93.50
2018-11-05T04:38:13.229Z,93.50
2018-11-05T04:41:46.455Z,93.60
2018-11-05T04:45:19.707Z,94.10
2018-11-05T04:48:52.965Z,93.90
2018-11-05T04:52:26.225Z,93.90
2018-11-05T04:55:59.470Z,94.00
2018-11-05T04:59:32.756Z,94.00
2018-11-05T05:03:06.053Z,94.00
2018-11-05T05:06:39.256Z,94.00
2018-11-05T05:10:12.513Z,94.10
2018-11-05T05:13:45.754Z,94.10
2018-11-05T05:17:18.990Z,94.10
2018-11-05T05:20:52.237Z,94.10
2018-11-05T05:24:25.478Z,94.20
2018-11-05T05:27:58.733Z,94.10
2018-11-05T05:31:31.985Z,94.10
2018-11-05T05:35:05.597Z,94.20
2018-11-05T05:38:38.992Z,94.20
2018-11-05T05:42:12.241Z,94.20
2018-11-05T05:45:45.525Z,94.20
2018-11-05T05:49:18.777Z,94.30
2018-11-05T05:52:52.030Z,94.30
2018-11-05T05:56:25.268Z,94.30
2018-11-05T05:59:58.655Z,94.20
2018-11-05T06:03:31.773Z,94.30
2018-11-05T06:07:05.218Z,94.30
2018-11-05T06:10:38.458Z,94.20
2018-11-05T06:14:11.701Z,94.20
2018-11-05T06:17:44.965Z,94.20
2018-11-05T06:21:18.272Z,94.20
2018-11-05T06:24:51.793Z,94.20
2018-11-05T06:28:25.073Z,94.10
2018-11-05T06:31:58.343Z,94.10
2018-11-05T06:35:31.837Z,94.00
2018-11-05T06:39:08.529Z,93.90
2018-11-05T06:42:42.441Z,93.90
2018-11-05T06:46:15.789Z,94.00
2018-11-05T06:49:49.037Z,94.00
2018-11-05T06:53:22.370Z,93.90
2018-11-05T06:56:55.629Z,93.90
2018-11-05T07:00:28.857Z,93.80
2018-11-05T07:04:02.140Z,93.80
2018-11-05T07:07:35.647Z,93.80
2018-11-05T07:11:08.968Z,93.90
2018-11-05T07:14:42.156Z,93.90
2018-11-05T07:18:15.620Z,93.80
2018-11-05T07:21:48.818Z,93.90
2018-11-05T07:25:22.117Z,93.90
2018-11-05T07:28:55.435Z,93.80
2018-11-05T07:32:28.706Z,93.70
2018-11-05T07:36:01.978Z,93.70
2018-11-05T07:39:35.223Z,93.60
2018-11-05T07:43:08.512Z,93.50
2018-11-05T07:46:41.756Z,93.60
2018-11-05T07:50:16.056Z,93.40
2018-11-05T07:53:49.264Z,93.40
2018-11-05T07:57:22.556Z,93.20
2018-11-05T08:00:56.708Z,93.10
2018-11-05T08:04:29.944Z,93.00
2018-11-05T08:08:03.177Z,92.80
2018-11-05T08:11:36.433Z,92.60
2018-11-05T08:15:12.684Z,92.40
2018-11-05T08:18:45.943Z,92.20
2018-11-05T08:22:19.199Z,91.90
2018-11-05T08:25:52.456Z,92.10
2018-11-05T08:29:25.706Z,91.40
2018-11-05T08:32:58.969Z,91.20
2018-11-05T08:36:32.230Z,91.00
2018-11-05T08:40:08.693Z,90.70
2018-11-05T08:43:41.881Z,90.50
2018-11-05T08:47:15.126Z,90.20
2018-11-05T08:50:48.447Z,89.80
2018-11-05T08:54:21.650Z,89.30
2018-11-05T08:57:54.890Z,88.60
2018-11-05T09:01:32.195Z,88.70
2018-11-05T09:05:05.746Z,88.40
2018-11-05T09:08:38.992Z,87.90
2018-11-05T09:12:12.362Z,87.20
2018-11-05T09:15:45.509Z,86.60
2018-11-05T09:19:18.777Z,86.50
2018-11-05T09:22:52.553Z,85.40
2018-11-05T09:26:25.813Z,84.60
2018-11-05T09:29:59.078Z,84.00
2018-11-05T09:33:32.315Z,83.50
2018-11-05T09:37:05.589Z,82.50
2018-11-05T09:40:38.849Z,82.00
2018-11-05T09:44:12.107Z,81.50
2018-11-05T09:47:46.060Z,81.00
2018-11-05T09:51:19.302Z,79.70
2018-11-05T09:54:52.630Z,79.60
2018-11-05T09:58:25.993Z,79.20
2018-11-05T10:01:59.239Z,78.30
2018-11-05T10:05:32.548Z,77.10
2018-11-05T10:09:08.428Z,76.60
2018-11-05T10:12:42.050Z,75.50
2018-11-05T10:16:15.301Z,74.70
2018-11-05T10:19:48.655Z,74.50
2018-11-05T10:23:21.907Z,74.00
2018-11-05T10:26:55.165Z,73.50
2018-11-05T10:30:28.425Z,72.70
2018-11-05T10:34:01.684Z,71.80
2018-11-05T10:37:34.921Z,71.50
2018-11-05T10:41:08.167Z,71.00
2018-11-05T10:44:41.410Z,70.30
2018-11-05T10:48:14.668Z,69.80
2018-11-05T10:51:47.963Z,69.80
2018-11-05T10:55:21.206Z,69.50
2018-11-05T10:58:54.491Z,69.50
2018-11-05T11:02:33.246Z,69.40
2018-11-05T11:06:07.817Z,69.10
2018-11-05T11:09:41.187Z,69.10
2018-11-05T11:13:14.359Z,69.10
2018-11-05T11:16:47.584Z,68.90
2018-11-05T11:20:20.877Z,68.50
2018-11-05T11:23:54.133Z,68.10
2018-11-05T11:27:27.385Z,67.70
2018-11-05T11:31:00.632Z,67.20
2018-11-05T11:34:33.877Z,66.70
2018-11-05T11:38:07.134Z,66.80
2018-11-05T11:41:40.626Z,66.70
2018-11-05T11:45:14.581Z,66.80
2018-11-05T11:48:47.830Z,66.50
2018-11-05T11:52:21.081Z,66.00
2018-11-05T11:55:54.318Z,65.20
2018-11-05T11:59:27.621Z,64.90
2018-11-05T12:03:00.898Z,64.70
2018-11-05T12:06:34.157Z,64.20
2018-11-05T12:10:09.990Z,63.90
2018-11-05T12:13:43.244Z,62.80
2018-11-05T12:17:16.515Z,61.60
2018-11-05T12:20:49.753Z,60.50
2018-11-05T12:24:23.076Z,59.30
2018-11-05T12:27:56.276Z,58.80
2018-11-05T12:31:29.547Z,58.00
2018-11-05T12:35:02.802Z,57.70
2018-11-05T12:38:36.207Z,57.80
2018-11-05T12:42:09.441Z,57.60
2018-11-05T12:45:42.872Z,57.80
2018-11-05T12:49:16.122Z,58.00
2018-11-05T12:52:50.228Z,58.00
2018-11-05T12:56:23.501Z,57.90
2018-11-05T12:59:56.745Z,58.10
2018-11-05T13:03:29.981Z,58.10
2018-11-05T13:07:03.267Z,58.10
2018-11-05T13:10:36.507Z,58.30
2018-11-05T13:14:09.740Z,58.10
2018-11-05T13:17:43.001Z,58.10
2018-11-05T13:21:16.241Z,58.20
2018-11-05T13:24:49.488Z,58.30
2018-11-05T13:28:22.806Z,58.20
2018-11-05T13:31:55.999Z,58.20
2018-11-05T13:35:29.258Z,58.20
2018-11-05T13:39:02.507Z,57.50
2018-11-05T13:42:35.745Z,57.50
2018-11-05T13:46:09.249Z,57.40
2018-11-05T13:49:42.358Z,57.50
2018-11-05T13:53:15.501Z,57.40
2018-11-05T13:56:48.752Z,57.40
2018-11-05T14:00:21.989Z,57.60
2018-11-05T14:03:55.241Z,57.60
2018-11-05T14:07:28.468Z,57.50
2018-11-05T14:11:01.831Z,57.50
2018-11-05T14:14:35.054Z,57.60
2018-11-05T14:18:08.369Z,58.40
2018-11-05T14:21:41.573Z,57.90
2018-11-05T14:25:16.813Z,58.10
2018-11-05T14:28:50.472Z,58.40
2018-11-05T14:32:23.272Z,58.50
2018-11-05T14:35:56.537Z,58.70
2018-11-05T14:39:29.777Z,59.00
2018-11-05T14:43:03.110Z,59.20
2018-11-05T14:46:36.289Z,59.50
2018-11-05T14:50:11.329Z,59.80
2018-11-05T14:53:44.576Z,60.10
2018-11-05T14:57:17.871Z,60.40
2018-11-05T15:00:51.118Z,60.80
2018-11-05T15:04:24.360Z,61.00
2018-11-05T15:07:57.615Z,61.20
2018-11-05T15:11:30.866Z,61.50
2018-11-05T15:15:04.201Z,61.70
2018-11-05T15:18:37.598Z,62.10
2018-11-05T15:22:10.768Z,62.40
2018-11-05T15:25:44.064Z,62.60
2018-11-05T15:29:17.277Z,63.00
2018-11-05T15:32:50.645Z,63.40
2018-11-05T15:36:23.878Z,63.50
2018-11-05T15:39:57.157Z,64.10
2018-11-05T15:43:30.409Z,64.40
2018-11-05T15:47:03.705Z,64.80
2018-11-05T15:50:36.989Z,65.00
2018-11-05T15:54:10.242Z,65.40
2018-11-05T15:57:43.509Z,65.80
2018-11-05T16:01:16.732Z,66.10
2018-11-05T16:04:49.992Z,66.50
2018-11-05T16:08:23.257Z,66.90
2018-11-05T16:11:56.500Z,67.20
2018-11-05T16:15:29.761Z,67.40
2018-11-05T16:19:03.002Z,67.90
2018-11-05T16:22:37.118Z,68.10
2018-11-05T16:26:10.672Z,68.50
2018-11-05T16:29:44.648Z,68.90
2018-11-05T16:33:18.615Z,69.20
2018-11-05T16:36:51.923Z,69.70
2018-11-05T16:40:25.184Z,70.00
2018-11-05T16:43:58.421Z,70.30
2018-11-05T16:47:31.665Z,70.80
2018-11-05T16:51:05.188Z,71.10
2018-11-05T16:54:38.464Z,71.60
2018-11-05T16:58:11.809Z,71.80
2018-11-05T17:01:45.363Z,72.20
2018-11-05T17:05:18.275Z,73.00
2018-11-05T17:08:51.519Z,72.90
2018-11-05T17:12:24.758Z,73.40
2018-11-05T17:15:58.009Z,74.60
2018-11-05T17:19:31.796Z,74.10
2018-11-05T17:23:05.090Z,74.70
2018-11-05T17:26:38.339Z,75.00
2018-11-05T17:30:14.382Z,75.10
2018-11-05T17:33:47.778Z,75.40
2018-11-05T17:37:20.905Z,76.00
2018-11-05T17:40:54.157Z,76.40
2018-11-05T17:44:27.401Z,76.60
2018-11-05T17:48:00.644Z,77.10
2018-11-05T17:51:33.896Z,77.20
2018-11-05T17:55:07.773Z,77.70
2018-11-05T17:58:41.021Z,77.90
2018-11-05T18:02:18.473Z,78.10
2018-11-05T18:05:51.713Z,78.20
2018-11-05T18:09:25.052Z,78.40
2018-11-05T18:12:58.213Z,78.60
2018-11-05T18:16:31.455Z,79.00
2018-11-05T18:20:05.167Z,79.20
2018-11-05T18:23:38.509Z,79.50
2018-11-05T18:27:11.764Z,79.50
2018-11-05T18:30:45.061Z,79.50
2018-11-05T18:34:18.369Z,79.70
2018-11-05T18:37:52.281Z,80.00
2018-11-05T18:41:25.520Z,80.20
2018-11-05T18:44:58.765Z,80.60
2018-11-05T18:48:32.012Z,80.90
2018-11-05T18:52:06.204Z,81.10
2018-11-05T18:55:39.440Z,81.40
2018-11-05T18:59:12.684Z,81.50
2018-11-05T19:02:46.004Z,81.80
2018-11-05T19:06:19.184Z,82.10
2018-11-05T19:09:52.453Z,82.20
2018-11-05T19:13:25.697Z,82.20
2018-11-05T19:16:59.037Z,82.60
2018-11-05T19:20:32.296Z,83.10
2018-11-05T19:24:05.888Z,83.40
2018-11-05T19:27:39.511Z,83.70
2018-11-05T19:31:12.769Z,84.40
2018-11-05T19:34:46.820Z,84.50
2018-11-05T19:38:20.057Z,84.50
2018-11-05T19:41:53.379Z,84.70
2018-11-05T19:45:26.565Z,84.80
2018-11-05T19:48:59.809Z,85.10
2018-11-05T19:52:33.052Z,85.30
2018-11-05T19:56:06.909Z,85.70
2018-11-05T19:59:40.101Z,85.80
2018-11-05T20:03:13.333Z,85.80
2018-11-05T20:06:46.600Z,85.80
2018-11-05T20:10:19.885Z,86.70
2018-11-05T20:13:53.584Z,86.20
2018-11-05T20:17:26.819Z,86.30
2018-11-05T20:21:00.071Z,86.60
2018-11-05T20:24:33.312Z,86.70
2018-11-05T20:28:06.568Z,86.70
2018-11-05T20:31:40.112Z,86.90
2018-11-05T20:35:13.370Z,86.90
2018-11-05T20:38:46.629Z,87.00
2018-11-05T20:42:19.877Z,87.30
2018-11-05T20:45:53.176Z,87.50
2018-11-05T20:49:26.603Z,87.60
2018-11-05T20:52:59.959Z,87.50
2018-11-05T20:56:33.577Z,87.60
2018-11-05T21:00:08.409Z,87.70
2018-11-05T21:03:41.762Z,87.60
2018-11-05T21:07:15.061Z,87.70
2018-11-05T21:10:48.301Z,87.80
2018-11-05T21:14:21.621Z,88.00
2018-11-05T21:17:54.981Z,88.20
2018-11-05T21:21:28.271Z,88.50
2018-11-05T21:25:01.616Z,88.90
2018-11-05T21:28:34.904Z,89.10
2018-11-05T21:32:08.317Z,90.00
2018-11-05T21:35:41.581Z,89.80
2018-11-05T21:39:14.841Z,90.30
2018-11-05T21:42:48.077Z,90.10
2018-11-05T21:46:21.340Z,90.20
2018-11-05T21:49:54.577Z,90.30
2018-11-05T21:53:27.931Z,90.30
2018-11-05T21:57:01.198Z,90.40
2018-11-05T22:00:34.441Z,90.50
2018-11-05T22:04:07.703Z,90.60
2018-11-05T22:07:41.025Z,90.60
2018-11-05T22:11:14.264Z,90.70
2018-11-05T22:14:47.505Z,90.60
2018-11-05T22:18:20.749Z,90.60
2018-11-05T22:21:53.981Z,90.40
2018-11-05T22:25:27.218Z,90.40
2018-11-05T22:29:00.460Z,90.50
2018-11-05T22:32:33.702Z,90.50
2018-11-05T22:36:06.957Z,90.60
2018-11-05T22:39:40.196Z,90.60
2018-11-05T22:43:13.451Z,90.60
2018-11-05T22:46:46.751Z,90.70
2018-11-05T22:50:19.954Z,90.80
2018-11-05T22:53:53.212Z,90.90
2018-11-05T22:57:26.458Z,90.90
2018-11-05T23:01:05.800Z,90.90
2018-11-05T23:04:39.032Z,90.90
2018-11-05T23:08:12.264Z,91.00
2018-11-05T23:11:46.231Z,91.10
2018-11-05T23:15:20.129Z,91.20
2018-11-05T23:18:53.383Z,91.30
2018-11-05T23:22:26.608Z,91.30
2018-11-05T23:25:59.864Z,91.20
2018-11-05T23:29:33.118Z,91.20
2018-11-05T23:33:06.382Z,91.10
2018-11-05T23:36:39.625Z,91.20
2018-11-05T23:40:12.861Z,91.20
2018-11-05T23:43:46.121Z,91.20
2018-11-05T23:47:19.365Z,91.30
2018-11-05T23:50:52.618Z,91.30
2018-11-05T23:54:25.864Z,91.40
2018-11-05T23:57:59.094Z,91.40
